Time;durP1;ratioP1;P1;durP2;ratioP2;P2;SDS_P1;SDS_P2;PMS_P1;PMS_P2;Temp;Humidity;BMP_temperature;BMP_pressure;BME280_temperature;BME280_humidity;BME280_pressure;Samples;Min_cycle;Max_cycle;Signal;HPM_P1;HPM_P2
2022/01/18 00:02:01;;;;;;;15.32;3.75;;;0.20;99.90;;;;;;5060537;28;20497;-93
2022/01/18 00:04:27;;;;;;;9.10;2.60;;;0.10;99.90;;;;;;5075941;28;20024;-92
2022/01/18 00:06:53;;;;;;;6.15;2.25;;;0.20;99.90;;;;;;5073489;28;20482;-91
2022/01/18 00:09:23;;;;;;;9.23;3.50;;;0.20;99.90;;;;;;5075981;28;20036;-91
2022/01/18 00:12:00;;;;;;;8.93;3.85;;;0.10;99.90;;;;;;5076022;28;20029;-92
2022/01/18 00:14:41;;;;;;;7.85;2.90;;;0.10;99.90;;;;;;5076058;28;20033;-93
2022/01/18 00:17:30;;;;;;;;;;;0.10;99.90;;;;;;5075835;28;20391;-92
2022/01/18 00:19:57;;;;;;;6.50;2.78;;;0.00;99.90;;;;;;5071211;28;19956;-93
2022/01/18 00:22:27;;;;;;;6.65;2.30;;;0.00;99.90;;;;;;5055870;28;20036;-92
2022/01/18 00:24:53;;;;;;;7.35;2.58;;;-0.10;99.90;;;;;;5039490;28;20063;-92
2022/01/18 00:27:19;;;;;;;3.13;2.33;;;-0.10;99.90;;;;;;5038962;28;20483;-93
2022/01/18 00:30:01;;;;;;;6.68;2.47;;;-0.10;99.90;;;;;;5055549;28;20078;-93
2022/01/18 00:32:46;;;;;;;2.47;1.83;;;-0.20;99.90;;;;;;5040595;28;20119;-92
2022/01/18 00:35:12;;;;;;;4.32;2.20;;;-0.20;99.90;;;;;;5055636;28;20017;-93
2022/01/18 00:37:50;;;;;;;2.85;2.10;;;-0.30;99.90;;;;;;5054647;28;20048;-90
2022/01/18 00:40:21;;;;;;;6.20;2.17;;;-0.30;99.90;;;;;;5056362;28;20028;-92
2022/01/18 00:42:47;;;;;;;4.15;2.10;;;-0.40;99.90;;;;;;5055031;28;20036;-92
2022/01/18 00:45:12;;;;;;;5.45;1.90;;;-0.30;99.90;;;;;;5054638;28;20075;-92
2022/01/18 00:47:39;;;;;;;6.40;2.30;;;-0.30;99.90;;;;;;5055941;28;20540;-91
2022/01/18 00:50:05;;;;;;;2.80;1.95;;;-0.30;99.90;;;;;;5047866;28;20052;-93
2022/01/18 00:52:35;;;;;;;5.65;2.08;;;-0.30;99.90;;;;;;5074679;28;20025;-92
2022/01/18 00:55:02;;;;;;;6.50;2.50;;;-0.30;99.90;;;;;;5075504;28;20112;-93
2022/01/18 00:57:28;;;;;;;3.85;2.35;;;-0.20;99.90;;;;;;5076137;28;20034;-92
2022/01/18 00:59:54;;;;;;;4.47;2.17;;;-0.20;99.90;;;;;;5074431;28;20030;-92
2022/01/18 01:02:21;;;;;;;6.20;3.10;;;-0.10;99.90;;;;;;5074997;28;20028;-89
2022/01/18 01:04:49;;;;;;;6.57;2.55;;;-0.10;99.90;;;;;;5064869;28;20029;-92
2022/01/18 01:07:20;;;;;;;5.55;2.60;;;0.00;99.90;;;;;;5054753;28;20025;-92
2022/01/18 01:09:48;;;;;;;4.13;2.28;;;0.00;99.90;;;;;;5054659;28;20386;-92
2022/01/18 01:12:15;;;;;;;3.78;2.35;;;0.00;99.90;;;;;;5054035;28;20360;-91
2022/01/18 01:14:43;;;;;;;2.88;2.25;;;0.10;99.90;;;;;;5054541;28;20112;-90
2022/01/18 01:17:27;;;;;;;2.58;2.35;;;0.10;99.90;;;;;;5054018;28;20429;-90
2022/01/18 01:36:29;;;;;;;2.70;1.65;;;0.20;99.90;;;;;;5076164;28;20058;-92
2022/01/18 01:46:40;;;;;;;6.78;2.78;;;0.10;99.90;;;;;;5075037;28;20112;-91
2022/01/18 01:49:07;;;;;;;6.18;2.70;;;0.10;99.90;;;;;;5063208;28;20035;-92
2022/01/18 01:51:33;;;;;;;5.38;2.40;;;0.10;99.90;;;;;;5055107;28;20047;-92
2022/01/18 01:54:05;;;;;;;3.65;2.25;;;0.10;99.90;;;;;;5053867;28;20025;-91
2022/01/18 01:56:33;;;;;;;4.65;2.47;;;0.10;99.90;;;;;;5053996;28;20029;-92
2022/01/18 01:58:59;;;;;;;2.67;2.00;;;0.10;99.90;;;;;;5054634;28;20021;-91
2022/01/18 02:01:26;;;;;;;4.43;2.40;;;0.00;99.90;;;;;;5054661;28;20028;-91
2022/01/18 02:03:52;;;;;;;4.88;2.13;;;0.10;99.90;;;;;;5054567;28;20028;-91
2022/01/18 02:06:18;;;;;;;4.07;2.03;;;0.10;99.90;;;;;;5034211;28;20041;-91
2022/01/18 02:08:44;;;;;;;6.78;2.40;;;0.10;99.90;;;;;;5049915;28;20036;-92
2022/01/18 02:11:11;;;;;;;3.40;2.08;;;0.10;99.90;;;;;;5050624;28;20025;-92
2022/01/18 02:13:37;;;;;;;3.50;2.60;;;0.20;99.90;;;;;;5049748;28;20386;-91
2022/01/18 02:24:01;;;;;;;3.95;2.00;;;0.20;99.90;;;;;;5074879;28;20115;-92
2022/01/18 02:26:26;;;;;;;3.45;2.53;;;0.20;99.90;;;;;;5073089;28;20024;-92
2022/01/18 02:28:52;;;;;;;4.65;2.55;;;0.20;99.90;;;;;;5060512;28;20033;-92
2022/01/18 02:31:21;;;;;;;5.47;2.58;;;0.20;99.90;;;;;;5053082;28;20497;-91
2022/01/18 02:33:47;;;;;;;4.72;2.80;;;0.20;99.90;;;;;;5052905;28;20133;-92
2022/01/18 02:36:12;;;;;;;3.65;2.60;;;0.20;99.90;;;;;;5053184;28;20439;-91
2022/01/18 02:38:38;;;;;;;4.30;3.00;;;0.20;99.90;;;;;;5053552;28;20021;-91
2022/01/18 02:41:05;;;;;;;6.43;3.03;;;0.20;99.90;;;;;;5054120;28;20112;-91
2022/01/18 02:43:46;;;;;;;4.55;2.90;;;0.20;99.90;;;;;;5053007;28;20044;-90
2022/01/18 02:46:12;;;;;;;5.47;3.28;;;0.20;99.90;;;;;;5053475;28;20025;-88
2022/01/18 02:48:41;;;;;;;5.68;3.72;;;0.20;99.90;;;;;;5053553;28;20032;-91
2022/01/18 02:51:06;;;;;;;11.75;3.47;;;0.10;99.90;;;;;;5054587;28;20021;-90
2022/01/18 02:53:32;;;;;;;4.00;2.85;;;-0.20;99.90;;;;;;5055369;28;20079;-96
2022/01/18 02:56:00;;;;;;;7.80;2.38;;;-0.50;99.90;;;;;;5037567;28;20059;-95
2022/01/18 02:58:29;;;;;;;5.72;2.90;;;-0.70;99.90;;;;;;5054045;28;20028;-89
2022/01/18 03:03:53;;;;;;;5.28;2.70;;;-1.20;99.90;;;;;;5059668;28;20025;-96
2022/01/18 03:06:41;;;;;;;7.93;2.70;;;-1.40;99.90;;;;;;5063769;28;20159;-96
2022/01/18 03:09:09;;;;;;;8.73;2.78;;;-1.50;99.90;;;;;;5054635;28;20581;-96
2022/01/18 03:11:36;;;;;;;8.05;3.10;;;-1.70;99.90;;;;;;5044927;28;20037;-96
2022/01/18 03:14:10;;;;;;;5.68;2.78;;;-1.70;99.90;;;;;;5056444;28;20063;-96
2022/01/18 03:16:36;;;;;;;7.20;2.80;;;-1.80;99.90;;;;;;5056090;28;20013;-96
2022/01/18 03:19:02;;;;;;;6.20;2.92;;;-1.90;99.90;;;;;;5229708;23;20065;-96
2022/01/18 03:21:28;;;;;;;6.20;3.00;;;-1.90;99.90;;;;;;5000899;28;20064;-96
2022/01/18 03:28:03;;;;;;;5.00;3.30;;;-2.00;99.90;;;;;;5599823;22;20062;-96
2022/01/18 03:29:24;;;;;;;3.70;2.70;;;-1.90;99.90;;;;;;5045793;22;20038;-96
2022/01/18 03:31:50;;;;;;;8.00;2.63;;;-1.90;99.90;;;;;;5404726;23;20058;-94
2022/01/18 03:34:16;;;;;;;8.75;3.22;;;-1.90;99.90;;;;;;4993624;28;20065;-95
2022/01/18 03:36:43;;;;;;;3.10;2.47;;;-1.90;99.90;;;;;;4993628;28;20026;-95
2022/01/18 03:39:09;;;;;;;5.25;3.13;;;-1.90;99.90;;;;;;4983094;28;20023;-96
2022/01/18 03:41:34;;;;;;;4.50;2.90;;;-1.90;99.90;;;;;;5111581;22;20058;-91
2022/01/18 03:47:06;;;;;;;4.65;3.10;;;-2.00;99.90;;;;;;5109879;23;20045;-96
2022/01/18 03:49:36;;;;;;;3.25;2.40;;;-2.00;99.90;;;;;;5004420;28;20022;-96
2022/01/18 03:55:04;;;;;;;4.25;2.40;;;-2.00;99.90;;;;;;4987625;28;20070;-96
2022/01/18 03:57:30;;;;;;;3.67;2.47;;;-2.00;99.90;;;;;;5067871;23;20137;-96
2022/01/18 03:59:56;;;;;;;4.35;2.40;;;-2.10;99.90;;;;;;5001821;28;20050;-96
2022/01/18 04:02:22;;;;;;;2.70;2.30;;;-2.00;99.90;;;;;;5004534;28;20022;-95
2022/01/18 04:04:49;;;;;;;3.70;2.45;;;-2.00;99.90;;;;;;5000801;28;20037;-96
2022/01/18 04:07:18;;;;;;;4.00;2.20;;;-2.00;99.90;;;;;;5008545;28;20030;-94
2022/01/18 04:12:15;;;;;;;3.58;2.00;;;-2.00;99.90;;;;;;4983807;28;20441;-95
2022/01/18 04:14:42;;;;;;;6.28;2.30;;;-2.10;99.90;;;;;;4968601;28;20061;-96
2022/01/18 04:17:31;;;;;;;6.75;1.95;;;-2.20;99.90;;;;;;4968935;28;20042;-95
2022/01/18 04:28:20;;;;;;;7.20;1.75;;;-2.60;99.90;;;;;;4977786;28;20109;-92
2022/01/18 04:30:46;;;;;;;4.25;1.83;;;-2.70;99.90;;;;;;4961715;28;20038;-96
2022/01/18 04:33:12;;;;;;;8.77;2.30;;;-2.70;99.90;;;;;;4945555;28;20058;-92
2022/01/18 04:35:38;;;;;;;5.88;2.92;;;-2.70;99.90;;;;;;4960489;28;20033;-95
2022/01/18 04:38:04;;;;;;;3.63;1.92;;;-2.70;99.90;;;;;;4960676;28;20137;-96
2022/01/18 04:40:32;;;;;;;1.95;1.85;;;-2.70;99.90;;;;;;4961645;28;20054;-96
2022/01/18 04:43:05;;;;;;;5.35;1.80;;;-2.70;99.90;;;;;;4961769;28;20034;-92
2022/01/18 04:50:51;;;;;;;7.22;2.10;;;-2.80;99.90;;;;;;4980163;28;20039;-95
2022/01/18 04:53:17;;;;;;;4.60;1.80;;;-2.80;99.90;;;;;;4962909;28;20081;-96
2022/01/18 04:55:43;;;;;;;1.73;1.38;;;-2.90;99.90;;;;;;4962456;28;20034;-96
2022/01/18 04:58:09;;;;;;;8.63;2.03;;;-3.00;99.90;;;;;;4960171;28;20019;-95
2022/01/18 05:00:35;;;;;;;1.63;1.40;;;-3.10;99.90;;;;;;4960296;28;20382;-96
2022/01/18 05:03:01;;;;;;;4.50;1.88;;;-3.10;99.90;;;;;;4961008;28;20035;-95
2022/01/18 05:05:30;;;;;;;1.77;1.52;;;-3.10;99.90;;;;;;4961124;28;20393;-94
2022/01/18 05:08:02;;;;;;;5.18;1.88;;;-3.10;99.90;;;;;;4960471;28;20461;-94
2022/01/18 05:10:30;;;;;;;2.63;1.60;;;-3.10;99.90;;;;;;4961142;28;20077;-95
2022/01/18 05:12:58;;;;;;;6.80;2.20;;;-3.10;99.90;;;;;;4960688;28;20496;-95
2022/01/18 05:23:08;;;;;;;3.08;1.77;;;-3.30;99.90;;;;;;4978294;28;20505;-94
2022/01/18 05:25:38;;;;;;;3.60;1.90;;;-3.30;99.90;;;;;;4962313;28;20102;-96
2022/01/18 05:28:06;;;;;;;4.68;1.65;;;-3.30;99.90;;;;;;4960317;28;20477;-96
2022/01/18 05:30:33;;;;;;;9.68;2.00;;;-3.20;99.90;;;;;;4962637;28;20038;-96
2022/01/18 05:32:59;;;;;;;3.60;1.83;;;-3.30;99.90;;;;;;4959582;28;20109;-94
2022/01/18 05:35:25;;;;;;;1.92;1.38;;;-3.30;99.90;;;;;;4961794;28;20023;-94
2022/01/18 05:37:52;;;;;;;3.35;1.70;;;-3.30;99.90;;;;;;4961081;28;20082;-95
2022/01/18 05:40:21;;;;;;;3.22;1.75;;;-3.20;99.90;;;;;;4964710;28;20030;-96
2022/01/18 05:42:47;;;;;;;3.85;1.52;;;-3.20;99.90;;;;;;4968918;28;20026;-95
2022/01/18 05:45:13;;;;;;;2.90;1.60;;;-3.20;99.90;;;;;;4968335;28;20030;-96
2022/01/18 05:47:44;;;;;;;3.88;2.22;;;-3.30;99.90;;;;;;4971882;28;20022;-96
2022/01/18 05:50:13;;;;;;;9.10;2.42;;;-3.20;99.90;;;;;;5029649;23;20058;-96
2022/01/18 05:52:39;;;;;;;9.70;3.28;;;-3.30;99.90;;;;;;4968235;28;20030;-93
2022/01/18 05:55:14;;;;;;;4.30;1.83;;;-3.20;99.90;;;;;;4985017;28;20022;-96
2022/01/18 05:57:40;;;;;;;11.23;2.83;;;-3.20;99.90;;;;;;4983208;28;20026;-95
2022/01/18 15:08:15;;;;;;;8.30;3.30;;;-2.90;99.90;;;;;;5092230;28;20427;-95
2022/01/18 15:10:41;;;;;;;16.67;3.92;;;-2.80;99.90;;;;;;5073517;28;20052;-91
2022/01/18 15:13:07;;;;;;;8.23;2.90;;;-2.80;99.90;;;;;;5091008;28;20032;-93
2022/01/18 15:15:33;;;;;;;8.27;3.45;;;-2.90;99.90;;;;;;5100278;28;20030;-94
2022/01/18 15:17:59;;;;;;;10.40;3.40;;;-2.80;99.90;;;;;;5095693;28;20022;-93
2022/01/18 15:20:26;;;;;;;16.13;5.22;;;-2.80;99.90;;;;;;5089583;28;20481;-93
2022/01/18 15:22:52;;;;;;;20.15;5.72;;;-2.80;99.90;;;;;;5091222;28;20119;-93
2022/01/18 15:25:20;;;;;;;10.90;4.43;;;-2.80;99.90;;;;;;5099039;28;20027;-93
2022/01/18 15:27:49;;;;;;;12.80;4.57;;;-2.80;99.90;;;;;;5093394;28;20039;-93
2022/01/18 15:30:15;;;;;;;8.90;3.78;;;-2.70;99.90;;;;;;5092276;28;20017;-96
2022/01/18 15:32:43;;;;;;;6.47;3.33;;;-2.70;99.90;;;;;;5090834;28;20024;-94
2022/01/18 15:35:14;;;;;;;15.00;4.35;;;-2.70;99.90;;;;;;5094997;28;20039;-96
2022/01/18 15:37:42;;;;;;;12.27;3.60;;;-2.70;99.90;;;;;;5091517;28;20497;-94
2022/01/18 15:40:09;;;;;;;9.20;3.60;;;-2.70;99.90;;;;;;5093748;28;20024;-95
2022/01/18 15:42:41;;;;;;;5.20;3.50;;;-2.60;99.90;;;;;;5094570;28;20024;-96
2022/01/18 15:45:09;;;;;;;6.22;3.75;;;-2.60;99.90;;;;;;5089359;28;20029;-94
2022/01/18 15:47:36;;;;;;;9.93;3.60;;;-2.60;99.90;;;;;;5090433;28;20097;-94
2022/01/18 15:50:04;;;;;;;5.53;3.10;;;-2.70;99.90;;;;;;5073931;28;20020;-95
2022/01/18 15:52:30;;;;;;;5.90;3.17;;;-2.70;99.90;;;;;;5074664;28;20025;-95
2022/01/18 15:54:56;;;;;;;5.57;2.75;;;-2.70;99.90;;;;;;5075711;28;20416;-94
2022/01/18 15:57:21;;;;;;;6.97;3.08;;;-2.60;99.90;;;;;;5090304;28;20078;-95
2022/01/18 15:59:48;;;;;;;8.52;3.78;;;-2.70;99.90;;;;;;5108454;22;20407;-96
2022/01/18 16:02:15;;;;;;;9.15;3.80;;;-2.70;99.90;;;;;;5031700;28;20049;-95
2022/01/18 16:04:42;;;;;;;8.75;3.28;;;-2.70;99.90;;;;;;5016446;28;20037;-96
2022/01/18 16:10:31;;;;;;;9.52;3.15;;;-2.70;99.90;;;;;;5031274;28;20037;-96
2022/01/18 16:12:58;;;;;;;8.32;3.72;;;-2.70;99.90;;;;;;5029437;28;20034;-95
2022/01/18 16:15:24;;;;;;;3.88;2.95;;;-2.70;99.90;;;;;;5030265;28;20032;-95
2022/01/18 16:17:50;;;;;;;6.90;3.83;;;-2.60;99.90;;;;;;5026091;28;20030;-94
2022/01/18 16:20:15;;;;;;;7.22;3.35;;;-2.60;99.90;;;;;;5017410;28;20377;-95
2022/01/18 16:22:43;;;;;;;7.32;3.00;;;-2.60;99.90;;;;;;5016609;28;20468;-94
2022/01/18 16:25:08;;;;;;;7.28;3.75;;;-2.60;99.90;;;;;;5016763;28;20125;-95
2022/01/18 16:27:36;;;;;;;8.63;3.20;;;-2.60;99.90;;;;;;5016477;28;20156;-95
2022/01/18 16:30:02;;;;;;;5.50;2.85;;;-2.60;99.90;;;;;;5016092;28;20018;-95
2022/01/18 16:32:37;;;;;;;5.60;3.28;;;-2.60;99.90;;;;;;5016183;28;20104;-94
2022/01/18 16:35:04;;;;;;;5.57;3.38;;;-2.60;99.90;;;;;;5016508;28;20057;-95
2022/01/18 16:37:31;;;;;;;7.50;2.83;;;-2.60;99.90;;;;;;5016456;28;20055;-95
2022/01/18 16:39:58;;;;;;;7.53;3.38;;;-2.70;99.90;;;;;;5016317;28;20049;-94
2022/01/18 16:42:24;;;;;;;8.82;4.43;;;-2.70;99.90;;;;;;5016087;28;20028;-94
2022/01/18 16:44:50;;;;;;;9.45;4.40;;;-2.70;99.90;;;;;;5015709;28;20030;-95
2022/01/18 16:47:19;;;;;;;8.63;4.03;;;-2.80;99.90;;;;;;5015249;28;20034;-95
2022/01/18 16:49:45;;;;;;;8.52;4.13;;;-2.80;99.90;;;;;;5015594;28;20084;-96
2022/01/18 16:52:11;;;;;;;11.85;3.35;;;-2.80;99.90;;;;;;5015964;28;20022;-94
2022/01/18 16:54:39;;;;;;;5.25;3.33;;;-2.80;99.90;;;;;;5015283;28;20022;-95
2022/01/18 16:57:05;;;;;;;10.13;4.47;;;-2.80;99.90;;;;;;5015720;28;20480;-94
2022/01/18 16:59:31;;;;;;;12.00;4.47;;;-2.80;99.90;;;;;;5015740;28;20053;-94
2022/01/18 17:01:58;;;;;;;8.38;3.92;;;-2.80;99.90;;;;;;5015311;28;20061;-94
2022/01/18 17:04:24;;;;;;;17.13;5.95;;;-2.80;99.90;;;;;;5015814;28;20033;-95
2022/01/18 17:06:50;;;;;;;11.75;4.90;;;-2.80;99.90;;;;;;5015012;28;20026;-93
2022/01/18 17:09:16;;;;;;;24.23;8.13;;;-2.80;99.90;;;;;;5015156;28;20491;-95
2022/01/18 17:11:44;;;;;;;18.92;5.80;;;-2.80;99.90;;;;;;5017473;28;20083;-94
2022/01/18 17:14:09;;;;;;;24.08;8.80;;;-2.80;99.90;;;;;;5016367;28;20026;-95
2022/01/18 17:16:35;;;;;;;21.52;8.80;;;-2.70;99.90;;;;;;5017295;28;20020;-95
2022/01/18 17:19:05;;;;;;;9.25;4.50;;;-2.80;99.90;;;;;;5015265;28;20034;-95
2022/01/18 17:21:31;;;;;;;10.68;4.40;;;-2.80;99.90;;;;;;4999059;28;20030;-95
2022/01/18 17:23:57;;;;;;;14.15;4.28;;;-2.80;99.90;;;;;;5015194;28;20380;-95
2022/01/18 17:26:23;;;;;;;7.65;3.63;;;-2.80;99.90;;;;;;5016565;28;20058;-96
2022/01/18 17:28:49;;;;;;;12.80;4.30;;;-2.80;99.90;;;;;;5014848;28;20061;-95
2022/01/18 17:31:15;;;;;;;8.07;3.70;;;-2.80;99.90;;;;;;5014132;28;20380;-95
2022/01/18 17:33:41;;;;;;;7.57;4.15;;;-2.80;99.90;;;;;;5015236;28;20026;-95
2022/01/18 17:36:07;;;;;;;10.27;3.80;;;-2.80;99.90;;;;;;5015367;28;20472;-94
2022/01/18 17:38:34;;;;;;;11.00;3.92;;;-2.80;99.90;;;;;;4999207;28;20053;-96
2022/01/18 17:41:01;;;;;;;11.88;4.32;;;-2.80;99.90;;;;;;5015423;28;20006;-95
2022/01/18 17:43:27;;;;;;;8.77;4.13;;;-2.80;99.90;;;;;;5015610;28;20034;-95
2022/01/18 17:45:53;;;;;;;12.70;5.32;;;-2.70;99.90;;;;;;5014317;28;20381;-95
2022/01/18 17:48:20;;;;;;;11.02;5.00;;;-2.70;99.90;;;;;;5014835;28;20041;-94
2022/01/18 17:50:47;;;;;;;11.15;5.63;;;-2.70;99.90;;;;;;5015312;28;20021;-95
2022/01/18 17:53:13;;;;;;;7.68;3.95;;;-2.70;99.90;;;;;;5015479;28;20024;-94
2022/01/18 17:55:41;;;;;;;7.53;3.60;;;-2.60;99.90;;;;;;5016618;28;20037;-96
2022/01/18 17:58:07;;;;;;;11.00;4.05;;;-2.70;99.90;;;;;;5014863;28;20030;-94
2022/01/18 18:00:33;;;;;;;12.85;5.15;;;-2.70;99.90;;;;;;4998939;28;20077;-94
2022/01/18 18:03:00;;;;;;;12.02;3.70;;;-2.70;99.90;;;;;;5017453;28;20036;-96
2022/01/18 18:05:26;;;;;;;11.73;4.55;;;-2.70;99.90;;;;;;5015416;28;20088;-95
2022/01/18 18:07:52;;;;;;;10.93;3.95;;;-2.80;99.90;;;;;;5014353;28;20026;-94
2022/01/18 18:10:19;;;;;;;8.55;3.55;;;-2.80;99.90;;;;;;5014493;28;20033;-94
2022/01/18 18:12:47;;;;;;;13.65;4.53;;;-2.70;99.90;;;;;;5014761;28;20026;-95
2022/01/18 18:15:19;;;;;;;7.97;3.58;;;-2.80;99.90;;;;;;5014913;28;20022;-94
2022/01/18 18:17:50;;;;;;;14.57;4.15;;;-2.80;99.90;;;;;;5014184;28;20029;-94
2022/01/18 18:20:22;;;;;;;18.77;5.55;;;-2.80;99.90;;;;;;5014645;28;20026;-94
2022/01/18 18:22:50;;;;;;;31.45;5.18;;;-2.70;99.90;;;;;;5014437;28;20480;-95
2022/01/18 18:25:16;;;;;;;10.27;3.65;;;-2.80;99.90;;;;;;5014163;28;20029;-95
2022/01/18 18:27:43;;;;;;;7.78;3.75;;;-2.80;99.90;;;;;;5014147;28;20022;-94
2022/01/18 18:30:12;;;;;;;9.13;3.88;;;-2.80;99.90;;;;;;5014030;28;20022;-94
2022/01/18 18:32:38;;;;;;;11.77;3.30;;;-2.80;99.90;;;;;;5014778;28;20041;-95
2022/01/18 18:35:05;;;;;;;8.57;3.55;;;-2.80;99.90;;;;;;5013818;28;20069;-94
2022/01/18 18:37:32;;;;;;;8.73;4.15;;;-2.90;99.90;;;;;;5013489;28;20456;-95
2022/01/18 18:40:10;;;;;;;10.50;3.55;;;-2.80;99.90;;;;;;5014026;28;20026;-94
2022/01/18 18:42:57;;;;;;;7.60;3.70;;;-2.80;99.90;;;;;;5015152;28;20026;-95
2022/01/18 18:45:34;;;;;;;13.05;3.80;;;-2.80;99.90;;;;;;5013798;28;20037;-95
2022/01/18 18:48:06;;;;;;;8.35;3.63;;;-2.80;99.90;;;;;;5015287;28;20037;-94
2022/01/18 18:50:33;;;;;;;14.95;4.47;;;-2.80;99.90;;;;;;5014178;28;20026;-94
2022/01/18 18:53:04;;;;;;;9.63;3.92;;;-2.90;99.90;;;;;;5013444;28;20018;-95
2022/01/18 18:55:31;;;;;;;10.98;4.80;;;-2.90;99.90;;;;;;5014420;28;20026;-94
2022/01/18 18:58:08;;;;;;;11.70;3.97;;;-2.90;99.90;;;;;;5013810;28;20038;-94
2022/01/18 19:05:43;;;;;;;9.40;3.85;;;-2.90;99.90;;;;;;5014932;28;20022;-94
2022/01/18 19:08:11;;;;;;;10.02;4.07;;;-2.90;99.90;;;;;;5013340;28;20029;-95
2022/01/18 19:10:37;;;;;;;21.38;4.03;;;-3.00;99.90;;;;;;5013501;28;20022;-95
2022/01/18 19:13:04;;;;;;;10.10;3.92;;;-3.00;99.90;;;;;;5013226;28;20022;-94
2022/01/18 19:15:31;;;;;;;9.38;3.20;;;-3.00;99.90;;;;;;5014153;28;20030;-95
2022/01/18 19:17:58;;;;;;;10.20;4.25;;;-3.10;99.90;;;;;;5014916;28;20044;-96
2022/01/18 19:20:29;;;;;;;12.00;4.28;;;-3.10;99.90;;;;;;5014596;28;20025;-96
2022/01/18 19:22:56;;;;;;;12.02;4.05;;;-3.20;99.90;;;;;;5013283;28;20048;-96
2022/01/18 19:25:24;;;;;;;14.38;3.83;;;-3.20;99.90;;;;;;5013249;28;20495;-95
2022/01/18 19:27:52;;;;;;;11.25;3.60;;;-3.20;99.90;;;;;;5012860;28;20037;-95
2022/01/18 19:30:19;;;;;;;15.45;4.07;;;-3.20;99.90;;;;;;5013611;28;20030;-95
2022/01/18 19:32:44;;;;;;;12.68;4.50;;;-3.20;99.90;;;;;;5013246;28;20032;-96
2022/01/18 19:35:11;;;;;;;22.15;5.95;;;-3.20;99.90;;;;;;5013463;28;20423;-96
2022/01/18 19:37:41;;;;;;;15.63;5.25;;;-3.20;99.90;;;;;;4997068;28;20395;-95
2022/01/18 19:40:10;;;;;;;9.90;4.03;;;-3.10;99.90;;;;;;5013966;28;20038;-95
2022/01/18 19:42:42;;;;;;;9.48;3.42;;;-3.10;99.90;;;;;;5013682;28;20037;-95
2022/01/18 19:45:14;;;;;;;8.40;4.13;;;-3.10;99.90;;;;;;5014937;28;20026;-95
2022/01/18 19:47:41;;;;;;;10.48;3.90;;;-3.20;99.90;;;;;;5012614;28;20037;-95
2022/01/18 19:50:09;;;;;;;7.85;3.55;;;-3.10;99.90;;;;;;5014212;28;20022;-94
2022/01/18 19:52:35;;;;;;;10.65;3.80;;;-3.10;99.90;;;;;;5013599;28;20089;-94
2022/01/18 19:55:01;;;;;;;12.15;3.75;;;-3.20;99.90;;;;;;5017854;28;20046;-95
2022/01/18 19:57:27;;;;;;;8.63;3.20;;;-3.10;99.90;;;;;;5001196;28;20095;-94
2022/01/18 19:59:53;;;;;;;15.93;4.50;;;-3.20;99.90;;;;;;5017111;28;20129;-93
2022/01/18 20:02:20;;;;;;;11.55;4.10;;;-3.10;99.90;;;;;;5000276;28;20022;-93
2022/01/18 20:04:46;;;;;;;12.00;4.20;;;-3.10;99.90;;;;;;5017755;28;20487;-93
2022/01/18 20:07:11;;;;;;;18.00;6.65;;;-3.10;99.90;;;;;;5016407;28;20030;-94
2022/01/18 20:09:37;;;;;;;11.80;4.72;;;-3.10;99.90;;;;;;5016532;28;20117;-94
2022/01/18 20:12:06;;;;;;;10.75;4.47;;;-3.10;99.90;;;;;;5018649;28;20088;-93
2022/01/18 20:14:33;;;;;;;18.73;4.70;;;-3.10;99.90;;;;;;5016291;28;20057;-93
2022/01/18 20:17:08;;;;;;;16.38;5.78;;;-3.10;99.90;;;;;;5034032;28;20075;-93
2022/01/18 20:19:39;;;;;;;20.33;5.22;;;-3.10;99.90;;;;;;5036223;28;20100;-92
2022/01/18 20:22:07;;;;;;;10.80;4.05;;;-3.10;99.90;;;;;;5020273;28;20033;-93
2022/01/18 20:24:38;;;;;;;13.25;3.90;;;-3.10;99.90;;;;;;5036405;28;20036;-93
2022/01/18 20:27:09;;;;;;;16.52;5.63;;;-3.20;99.90;;;;;;5036633;28;20532;-93
2022/01/18 20:29:35;;;;;;;17.83;5.97;;;-3.20;99.90;;;;;;5036268;28;20071;-93
2022/01/18 20:32:02;;;;;;;16.05;8.15;;;-3.20;99.90;;;;;;5035743;28;20017;-93
2022/01/18 20:34:27;;;;;;;13.40;5.50;;;-3.20;99.90;;;;;;5036598;28;20025;-94
2022/01/18 20:36:53;;;;;;;12.30;4.22;;;-3.20;99.90;;;;;;5020410;28;20191;-94
2022/01/18 20:39:19;;;;;;;12.55;5.50;;;-3.20;99.90;;;;;;5006407;28;20084;-95
2022/01/18 20:44:29;;;;;;;9.77;4.50;;;-3.20;99.90;;;;;;5017161;28;20172;-93
2022/01/18 20:46:56;;;;;;;11.88;4.63;;;-3.20;99.90;;;;;;5016828;28;20054;-96
2022/01/18 20:49:42;;;;;;;11.70;4.82;;;-3.20;99.90;;;;;;5017871;28;20025;-94
2022/01/18 20:52:08;;;;;;;9.68;3.90;;;-3.20;99.90;;;;;;5015829;28;20522;-94
2022/01/18 20:54:35;;;;;;;12.48;4.50;;;-3.30;99.90;;;;;;5015770;28;20133;-94
2022/01/18 20:57:03;;;;;;;13.82;5.35;;;-3.20;99.90;;;;;;5015572;28;20076;-95
2022/01/18 20:59:29;;;;;;;20.08;7.15;;;-3.40;99.90;;;;;;4996471;28;20178;-94
2022/01/18 21:01:54;;;;;;;10.30;3.75;;;-3.40;99.90;;;;;;4995696;28;20039;-93
2022/01/18 21:04:22;;;;;;;11.80;5.05;;;-3.40;99.90;;;;;;4996591;28;20026;-94
2022/01/18 21:06:47;;;;;;;7.90;3.60;;;-3.40;99.90;;;;;;5015398;28;20468;-94
2022/01/18 21:09:15;;;;;;;15.48;4.32;;;-3.40;99.90;;;;;;5015103;28;20033;-93
2022/01/18 21:11:48;;;;;;;5.35;3.30;;;-3.40;99.90;;;;;;5015460;28;20014;-94
2022/01/18 21:14:32;;;;;;;11.75;4.90;;;-3.40;99.90;;;;;;5016775;28;20027;-94
2022/01/18 21:16:59;;;;;;;12.20;4.97;;;-3.40;99.90;;;;;;5015209;28;20113;-93
2022/01/18 21:19:26;;;;;;;9.38;3.90;;;-3.40;99.90;;;;;;5016549;28;20114;-94
2022/01/18 21:21:51;;;;;;;13.38;5.38;;;-3.40;99.90;;;;;;5015201;28;20447;-93
2022/01/18 21:24:18;;;;;;;10.70;4.30;;;-3.40;99.90;;;;;;5015214;28;20049;-93
2022/01/18 21:26:45;;;;;;;13.50;3.65;;;-3.40;99.90;;;;;;5015041;28;20022;-92
2022/01/18 21:29:11;;;;;;;7.05;3.85;;;-3.40;99.90;;;;;;5014997;28;20093;-94
2022/01/18 21:31:37;;;;;;;5.57;3.47;;;-3.40;99.90;;;;;;5015017;28;20471;-93
2022/01/18 21:34:10;;;;;;;3.42;2.50;;;-3.40;99.90;;;;;;5015206;28;20029;-95
2022/01/18 21:36:38;;;;;;;5.30;3.60;;;-3.40;99.90;;;;;;5015229;28;20026;-94
2022/01/18 21:39:06;;;;;;;10.25;3.95;;;-3.50;99.90;;;;;;5014366;28;20041;-94
2022/01/18 21:41:32;;;;;;;6.78;3.03;;;-3.50;99.90;;;;;;5015138;28;20026;-94
2022/01/18 21:43:58;;;;;;;14.70;3.25;;;-3.50;99.90;;;;;;5015211;28;20022;-93
2022/01/18 21:46:25;;;;;;;10.95;3.40;;;-3.60;99.90;;;;;;5015161;28;20137;-95
2022/01/18 21:48:52;;;;;;;7.07;4.10;;;-3.60;99.90;;;;;;5014596;28;20109;-95
2022/01/18 21:51:21;;;;;;;8.68;2.97;;;-3.60;99.90;;;;;;5014697;28;20482;-93
2022/01/18 21:53:47;;;;;;;8.05;3.72;;;-3.60;99.90;;;;;;5014685;28;20056;-93
2022/01/18 21:56:13;;;;;;;11.02;4.50;;;-3.60;99.90;;;;;;5014980;28;20029;-93
2022/01/18 21:58:39;;;;;;;12.65;3.38;;;-3.50;99.90;;;;;;5014201;28;20025;-94
2022/01/18 22:01:06;;;;;;;6.03;2.88;;;-3.50;99.90;;;;;;4998400;28;20048;-94
2022/01/18 22:03:31;;;;;;;8.25;2.90;;;-3.50;99.90;;;;;;5014626;28;20021;-94
2022/01/18 22:05:57;;;;;;;9.38;3.70;;;-3.50;99.90;;;;;;5014307;28;20117;-92
2022/01/18 22:08:23;;;;;;;8.07;3.45;;;-3.60;99.90;;;;;;4998144;28;20049;-93
2022/01/18 22:10:49;;;;;;;3.75;2.42;;;-3.60;99.90;;;;;;5014303;28;20037;-94
2022/01/18 22:13:16;;;;;;;6.68;2.88;;;-3.60;99.90;;;;;;5014035;28;20022;-94
2022/01/18 22:15:41;;;;;;;8.63;3.90;;;-3.50;99.90;;;;;;5013900;28;20030;-94
2022/01/18 22:18:07;;;;;;;7.53;3.63;;;-3.50;99.90;;;;;;5014889;28;20540;-94
2022/01/18 22:20:36;;;;;;;13.82;4.07;;;-3.60;99.90;;;;;;4998121;28;20038;-94
2022/01/18 22:23:01;;;;;;;4.75;3.15;;;-3.50;99.90;;;;;;5014651;28;20037;-94
2022/01/18 22:25:28;;;;;;;11.98;4.30;;;-3.60;99.90;;;;;;5013910;28;20034;-93
2022/01/18 22:27:56;;;;;;;8.15;3.40;;;-3.50;99.90;;;;;;4998077;28;20033;-93
2022/01/18 22:30:24;;;;;;;13.45;4.45;;;-3.50;99.90;;;;;;5014373;28;20029;-93
2022/01/18 22:32:51;;;;;;;7.40;3.70;;;-3.50;99.90;;;;;;5014455;28;20507;-93
2022/01/18 22:35:18;;;;;;;7.93;4.20;;;-3.50;99.90;;;;;;5014243;28;20100;-89
2022/01/18 22:37:43;;;;;;;9.45;3.72;;;-3.60;99.90;;;;;;5014270;28;20026;-93
2022/01/18 22:40:12;;;;;;;13.23;4.45;;;-3.60;99.90;;;;;;5015106;28;20473;-93
2022/01/18 22:42:39;;;;;;;15.23;5.30;;;-3.60;99.90;;;;;;4997738;28;20125;-93
2022/01/18 22:45:06;;;;;;;11.77;4.80;;;-3.60;99.90;;;;;;5015191;28;20022;-93
2022/01/18 22:47:33;;;;;;;9.23;4.05;;;-3.60;99.90;;;;;;4995000;28;20041;-93
2022/01/18 22:50:00;;;;;;;5.78;3.63;;;-3.70;99.90;;;;;;5003433;28;20014;-94
2022/01/18 22:52:30;;;;;;;7.07;3.53;;;-3.70;99.90;;;;;;5014240;28;20030;-93
2022/01/18 22:55:00;;;;;;;11.93;3.70;;;-3.70;99.90;;;;;;5015508;28;20030;-93
2022/01/18 22:57:27;;;;;;;6.68;3.13;;;-3.70;99.90;;;;;;5014367;28;20468;-93
2022/01/18 22:59:53;;;;;;;8.77;3.33;;;-3.70;99.90;;;;;;5013742;28;20103;-93
2022/01/18 23:02:19;;;;;;;6.13;3.25;;;-3.80;99.90;;;;;;5014215;28;20022;-93
2022/01/18 23:04:47;;;;;;;6.32;2.83;;;-3.80;99.90;;;;;;5013734;28;20489;-94
2022/01/18 23:07:15;;;;;;;5.40;3.20;;;-3.80;99.90;;;;;;5013544;28;20495;-93
2022/01/18 23:09:40;;;;;;;6.47;3.17;;;-3.80;99.90;;;;;;5013835;28;20105;-93
2022/01/18 23:12:07;;;;;;;7.45;3.13;;;-3.90;99.90;;;;;;5013286;28;20093;-93
2022/01/18 23:14:35;;;;;;;8.32;3.97;;;-3.80;99.90;;;;;;5013805;28;20468;-94
2022/01/18 23:17:01;;;;;;;5.88;3.30;;;-3.80;99.90;;;;;;4997185;28;20111;-93